Portada
METAR-TAF:

METAR-TAF

Aeropuertos :

Aeropuerto de Oslo-Gardermoen

Oslo, Noruega

latitud: 60-12N, longitud: 011-05E, altitud: 208 m

Observación

El informe se hizo hace 29 minutos, a las 19:20 UTC
Viento 6 kt del norte-noroeste, variando entre oeste-noroeste y norte-noreste
Temperatura 0°C
Humedad 55%
Presión 1009 hPa
Visibilidad 10 km o más
sin nubes por debajo de 1500 m y sin presencia de cumulonimbus.

METAR: ENGM 181920Z 34006KT 300V020 CAVOK M00/M08 Q1009 NOSIG

Hora: 20:49 (19:49 UTC)

Pronóstico

El informe se hizo hace 1 hora y 2 minutos, a las 18:47 UTC
Pronóstico válido del 18 a las 18 UTC al 19 a las 18 UTC
Viento 7 kt del noroeste
Visibilidad 10 km o más
sin nubes por debajo de 1500 m y sin presencia de cumulonimbus.
Evolucionando progresivamente
del 19 a las 10 UTC al 19 a las 12 UTC
Viento 10 kt del sur

TAF: ENGM 181847Z 1818/1918 32007KT CAVOK BECMG 1910/1912 18010KT

Observaciones y pronósticos meteorológicos de más de 4000 aeropuertos (mensajes METAR y TAF).

Los puntos amarillos y rojos representan las estaciones disponibles.

Ponga el ratón en el punto deseado para ver el nombre de la estación.

Haga clic para ver las observaciones y los pronósticos meteorológicos.

Para cambiar el mapa : haga clic en los botones verdes con una cruz de color negro para hacer un zoom, en el botón verde con un guión para alejar o en las flechas verdes para mapas adyacentes.


METAR-TAF: